createdAt,value
2023-04-09T00:01:56.693Z,100.00
2023-04-09T00:05:11.465Z,100.00
2023-04-09T00:08:24.080Z,100.00
2023-04-09T00:11:36.550Z,100.00
2023-04-09T00:14:48.626Z,100.00
2023-04-09T00:18:00.582Z,100.00
2023-04-09T00:21:12.898Z,100.00
2023-04-09T00:24:24.900Z,100.00
2023-04-09T00:27:36.863Z,100.00
2023-04-09T00:30:48.876Z,100.00
2023-04-09T00:34:01.327Z,100.00
2023-04-09T00:37:13.633Z,100.00
2023-04-09T00:40:25.535Z,100.00
2023-04-09T00:43:37.482Z,100.00
2023-04-09T00:46:49.603Z,100.00
2023-04-09T00:50:02.102Z,100.00
2023-04-09T00:53:15.641Z,100.00
2023-04-09T00:56:29.945Z,100.00
2023-04-09T00:59:42.166Z,100.00
2023-04-09T01:02:54.834Z,100.00
2023-04-09T01:06:15.111Z,100.00
2023-04-09T01:09:33.287Z,100.00
2023-04-09T01:12:51.602Z,100.00
2023-04-09T01:16:06.567Z,100.00
2023-04-09T01:19:26.381Z,100.00
2023-04-09T01:22:54.179Z,100.00
2023-04-09T01:26:15.447Z,100.00
2023-04-09T01:29:31.727Z,100.00
2023-04-09T01:32:47.443Z,100.00
2023-04-09T01:36:01.104Z,100.00
2023-04-09T01:39:14.647Z,100.00
2023-04-09T01:42:27.676Z,100.00
2023-04-09T01:45:41.077Z,100.00
2023-04-09T01:48:54.244Z,100.00
2023-04-09T01:52:06.740Z,100.00
2023-04-09T01:55:19.087Z,100.00
2023-04-09T01:58:34.418Z,100.00
2023-04-09T02:01:51.582Z,100.00
2023-04-09T02:05:06.630Z,100.00
2023-04-09T02:08:24.407Z,100.00
2023-04-09T02:11:39.262Z,100.00
2023-04-09T02:14:56.182Z,100.00
2023-04-09T02:18:08.423Z,100.00
2023-04-09T02:21:20.259Z,100.00
2023-04-09T02:24:32.311Z,100.00
2023-04-09T02:27:44.402Z,100.00
2023-04-09T02:30:56.813Z,100.00
2023-04-09T02:34:08.787Z,100.00
2023-04-09T02:37:20.992Z,100.00
2023-04-09T02:40:33.277Z,100.00
2023-04-09T02:43:45.375Z,100.00
2023-04-09T02:46:58.321Z,100.00
2023-04-09T02:50:11.908Z,100.00
2023-04-09T02:53:26.212Z,100.00
2023-04-09T02:56:38.333Z,100.00
2023-04-09T02:59:50.929Z,100.00
2023-04-09T03:03:03.364Z,100.00
2023-04-09T03:06:15.484Z,100.00
2023-04-09T03:09:27.597Z,100.00
2023-04-09T03:12:39.649Z,100.00
2023-04-09T03:15:53.654Z,100.00
2023-04-09T03:19:05.800Z,100.00
2023-04-09T03:22:18.083Z,100.00
2023-04-09T03:25:31.194Z,100.00
2023-04-09T03:28:44.182Z,100.00
2023-04-09T03:31:56.176Z,100.00
2023-04-09T03:35:08.524Z,100.00
2023-04-09T03:38:21.347Z,100.00
2023-04-09T03:41:33.503Z,100.00
2023-04-09T03:44:47.293Z,100.00
2023-04-09T03:48:01.317Z,100.00
2023-04-09T03:51:17.217Z,100.00
2023-04-09T03:54:33.283Z,100.00
2023-04-09T03:57:45.871Z,100.00
2023-04-09T04:01:00.373Z,100.00
2023-04-09T04:04:14.624Z,100.00
2023-04-09T04:07:28.912Z,100.00
2023-04-09T04:10:42.925Z,100.00
2023-04-09T04:13:56.009Z,100.00
2023-04-09T04:17:08.289Z,100.00
2023-04-09T04:20:21.233Z,100.00
2023-04-09T04:23:39.884Z,100.00
2023-04-09T04:26:54.045Z,100.00
2023-04-09T04:30:06.885Z,100.00
2023-04-09T04:33:21.062Z,100.00
2023-04-09T04:36:34.972Z,100.00
2023-04-09T04:39:47.762Z,100.00
2023-04-09T04:43:01.661Z,100.00
2023-04-09T04:46:14.418Z,100.00
2023-04-09T04:49:26.548Z,100.00
2023-04-09T04:52:39.044Z,100.00
2023-04-09T04:55:51.082Z,100.00
2023-04-09T04:59:06.386Z,100.00
2023-04-09T05:02:20.297Z,100.00
2023-04-09T05:05:37.514Z,100.00
2023-04-09T05:08:49.692Z,100.00
2023-04-09T05:12:03.192Z,100.00
2023-04-09T05:15:16.846Z,100.00
2023-04-09T05:18:29.045Z,100.00
2023-04-09T05:21:41.211Z,100.00
2023-04-09T05:24:54.061Z,100.00
2023-04-09T05:28:06.457Z,100.00
2023-04-09T05:31:19.190Z,100.00
2023-04-09T05:34:33.319Z,100.00
2023-04-09T05:37:45.779Z,100.00
2023-04-09T05:40:59.819Z,100.00
2023-04-09T05:44:11.955Z,100.00
2023-04-09T05:47:24.677Z,100.00
2023-04-09T05:50:51.451Z,100.00
2023-04-09T05:53:53.749Z,100.00
2023-04-09T05:57:06.394Z,100.00
2023-04-09T06:00:22.557Z,100.00
2023-04-09T06:03:34.999Z,100.00
2023-04-09T06:06:47.415Z,100.00
2023-04-09T06:10:00.962Z,100.00
2023-04-09T06:13:13.172Z,100.00
2023-04-09T06:16:25.306Z,100.00
2023-04-09T06:19:37.482Z,100.00
2023-04-09T06:22:49.418Z,100.00
2023-04-09T06:26:01.548Z,100.00
2023-04-09T06:29:13.568Z,100.00
2023-04-09T06:32:25.861Z,100.00
2023-04-09T06:35:38.237Z,100.00
2023-04-09T06:38:50.243Z,100.00
2023-04-09T06:42:04.742Z,100.00
2023-04-09T06:45:19.324Z,100.00
2023-04-09T06:48:31.548Z,100.00
2023-04-09T06:51:43.358Z,100.00
2023-04-09T06:54:55.404Z,100.00
2023-04-09T06:58:07.384Z,100.00
2023-04-09T07:01:20.432Z,100.00
2023-04-09T07:04:32.681Z,100.00
2023-04-09T07:07:45.087Z,100.00
2023-04-09T07:10:57.508Z,100.00
2023-04-09T07:14:09.633Z,100.00
2023-04-09T07:17:21.737Z,100.00
2023-04-09T07:20:34.533Z,100.00
2023-04-09T07:23:46.966Z,99.75
2023-04-09T07:26:59.089Z,98.57
2023-04-09T07:30:13.320Z,92.79
2023-04-09T07:33:25.266Z,89.25
2023-04-09T07:36:38.956Z,86.60
2023-04-09T07:39:51.447Z,85.77
2023-04-09T07:43:03.558Z,82.24
2023-04-09T07:46:15.628Z,81.58
2023-04-09T07:49:27.701Z,82.41
2023-04-09T07:52:39.969Z,81.45
2023-04-09T07:55:52.058Z,77.87
2023-04-09T07:59:05.243Z,76.75
2023-04-09T08:02:18.255Z,77.10
2023-04-09T08:05:30.911Z,78.89
2023-04-09T08:08:42.952Z,76.33
2023-04-09T08:11:56.045Z,73.82
2023-04-09T08:15:08.409Z,73.37
2023-04-09T08:18:23.579Z,75.50
2023-04-09T08:21:36.018Z,75.03
2023-04-09T08:24:48.170Z,72.69
2023-04-09T08:28:00.720Z,72.21
2023-04-09T08:31:12.925Z,69.67
2023-04-09T08:34:25.298Z,68.32
2023-04-09T08:37:37.705Z,68.13
2023-04-09T08:40:50.019Z,71.11
2023-04-09T08:44:03.158Z,71.49
2023-04-09T08:47:17.442Z,72.55
2023-04-09T08:50:30.089Z,74.32
2023-04-09T08:53:43.421Z,77.23
2023-04-09T08:56:56.496Z,77.11
2023-04-09T09:00:09.210Z,75.98
2023-04-09T09:03:21.652Z,77.93
2023-04-09T09:06:36.088Z,79.56
2023-04-09T09:18:52.504Z,80.40
2023-04-09T09:22:04.825Z,79.31
2023-04-09T09:25:22.490Z,76.82
2023-04-09T09:28:40.612Z,76.44
2023-04-09T09:31:58.266Z,71.57
2023-04-09T09:35:13.442Z,70.46
2023-04-09T09:38:28.272Z,69.37
2023-04-09T09:41:41.361Z,70.36
2023-04-09T09:44:54.085Z,74.74
2023-04-09T09:48:06.534Z,74.60
2023-04-09T09:51:20.202Z,75.32
2023-04-09T09:54:36.574Z,73.09
2023-04-09T09:57:50.964Z,71.42
2023-04-09T10:01:04.000Z,74.00
2023-04-09T10:07:17.309Z,72.13
2023-04-09T10:10:30.191Z,74.01
2023-04-09T10:13:46.980Z,77.13
2023-04-09T10:16:59.219Z,77.75
2023-04-09T10:29:17.428Z,77.47
2023-04-09T10:32:30.828Z,78.67
2023-04-09T10:38:48.080Z,80.62
2023-04-09T10:42:02.799Z,79.25
2023-04-09T10:45:21.390Z,82.09
2023-04-09T10:48:38.938Z,80.46
2023-04-09T10:54:53.393Z,82.79
2023-04-09T10:58:13.678Z,84.35
2023-04-09T11:01:31.279Z,84.40
2023-04-09T11:04:52.634Z,83.33
2023-04-09T11:08:12.427Z,81.90
2023-04-09T11:11:24.838Z,83.71
2023-04-09T11:14:37.206Z,83.24
2023-04-09T11:26:50.934Z,80.60
2023-04-09T11:51:44.915Z,76.52
2023-04-09T12:01:04.245Z,78.15
2023-04-09T12:04:19.024Z,79.10
2023-04-09T12:07:38.055Z,78.91
2023-04-09T12:10:53.363Z,79.47
2023-04-09T12:14:09.403Z,79.02
2023-04-09T12:17:21.659Z,79.37
2023-04-09T12:20:42.629Z,79.31
2023-04-09T12:23:54.713Z,79.34
2023-04-09T12:27:06.839Z,78.54
2023-04-09T12:30:19.741Z,77.97
2023-04-09T12:33:32.472Z,80.32
2023-04-09T12:36:45.934Z,79.48
2023-04-09T12:39:58.133Z,79.04
2023-04-09T12:43:10.344Z,78.30
2023-04-09T12:46:23.852Z,77.68
2023-04-09T12:49:37.725Z,77.18
2023-04-09T12:52:50.034Z,78.37
2023-04-09T12:56:02.342Z,78.62
2023-04-09T12:59:14.450Z,79.38
2023-04-09T13:02:27.565Z,77.61
2023-04-09T13:05:39.848Z,78.73
2023-04-09T13:08:51.884Z,78.30
2023-04-09T13:12:03.892Z,77.41
2023-04-09T13:15:17.526Z,79.24
2023-04-09T13:18:29.480Z,75.45
2023-04-09T13:21:42.100Z,72.90
2023-04-09T13:24:54.184Z,69.52
2023-04-09T13:28:06.237Z,71.29
2023-04-09T13:31:19.170Z,70.05
2023-04-09T13:34:31.436Z,69.40
2023-04-09T13:37:43.557Z,68.36
2023-04-09T13:40:55.932Z,69.36
2023-04-09T13:44:08.282Z,71.05
2023-04-09T13:47:22.111Z,69.19
2023-04-09T13:50:34.558Z,71.25
2023-04-09T13:53:46.699Z,68.59
2023-04-09T13:56:59.195Z,61.56
2023-04-09T14:03:26.220Z,66.15
2023-04-09T14:06:38.273Z,62.45
2023-04-09T14:09:50.962Z,62.47
2023-04-09T14:13:04.914Z,62.87
2023-04-09T14:16:17.387Z,64.00
2023-04-09T14:19:29.441Z,62.50
2023-04-09T14:22:43.192Z,64.33
2023-04-09T14:25:55.512Z,64.76
2023-04-09T14:29:07.802Z,65.37
2023-04-09T14:32:20.016Z,64.39
2023-04-09T14:35:32.487Z,64.89
2023-04-09T14:38:44.631Z,66.30
2023-04-09T14:41:57.430Z,67.62
2023-04-09T14:45:10.405Z,66.24
2023-04-09T14:48:22.768Z,68.99
2023-04-09T14:51:35.146Z,69.24
2023-04-09T14:54:47.290Z,67.04
2023-04-09T14:57:59.775Z,68.05
2023-04-09T15:01:12.565Z,69.93
2023-04-09T15:04:24.612Z,69.98
2023-04-09T15:07:36.963Z,71.03
2023-04-09T15:10:49.039Z,73.46
2023-04-09T15:14:01.460Z,74.28
2023-04-09T15:17:13.586Z,75.83
2023-04-09T15:20:25.604Z,71.11
2023-04-09T15:23:37.780Z,73.69
2023-04-09T15:26:49.918Z,72.34
2023-04-09T15:30:01.897Z,75.14
2023-04-09T15:33:14.111Z,73.57
2023-04-09T15:42:27.477Z,77.48
2023-04-09T15:48:40.867Z,78.21
2023-04-09T15:51:54.701Z,76.44
2023-04-09T16:29:37.817Z,81.98
2023-04-09T16:32:50.944Z,82.43
2023-04-09T16:39:04.549Z,81.67
2023-04-09T16:48:32.577Z,83.50
2023-04-09T17:00:47.173Z,85.35
2023-04-09T17:10:00.596Z,87.59
2023-04-09T17:39:56.180Z,92.20
2023-04-09T17:46:09.197Z,92.63
2023-04-09T17:49:22.577Z,93.70
2023-04-09T17:55:36.246Z,95.08
2023-04-09T17:58:55.156Z,94.99
2023-04-09T18:02:11.592Z,94.40
2023-04-09T18:05:26.226Z,93.02
2023-04-09T18:08:38.984Z,93.28
2023-04-09T18:11:53.709Z,92.94
2023-04-09T18:15:06.519Z,92.99
2023-04-09T18:18:19.097Z,93.08
2023-04-09T18:21:31.483Z,93.30
2023-04-09T18:24:43.880Z,94.10
2023-04-09T18:27:56.596Z,94.80
2023-04-09T18:31:11.326Z,94.64
2023-04-09T19:16:09.374Z,97.79
2023-04-09T19:19:21.978Z,97.32
2023-04-09T19:22:33.986Z,96.18
2023-04-09T19:25:46.101Z,96.57
2023-04-09T19:28:58.309Z,95.13
2023-04-09T19:32:12.946Z,95.71
2023-04-09T19:35:25.226Z,95.76
2023-04-09T19:38:37.652Z,96.82
2023-04-09T19:41:50.512Z,97.58
2023-04-09T19:45:02.746Z,98.21
2023-04-09T19:48:15.004Z,99.39
2023-04-09T19:51:27.572Z,99.53
2023-04-09T19:54:39.942Z,100.00
2023-04-09T19:57:52.226Z,100.00
2023-04-09T20:01:04.414Z,100.00
2023-04-09T20:04:16.662Z,100.00
2023-04-09T20:07:28.891Z,100.00
2023-04-09T20:10:46.368Z,100.00
2023-04-09T20:13:58.826Z,100.00
2023-04-09T20:17:11.632Z,100.00
2023-04-09T20:20:24.082Z,100.00
2023-04-09T20:23:36.390Z,100.00
2023-04-09T20:26:48.486Z,100.00
2023-04-09T20:30:02.073Z,100.00
2023-04-09T20:33:14.124Z,100.00
2023-04-09T20:36:26.745Z,100.00
2023-04-09T20:39:38.953Z,100.00
2023-04-09T20:42:52.794Z,100.00
2023-04-09T20:46:05.481Z,100.00
2023-04-09T20:49:19.078Z,100.00
2023-04-09T20:52:32.628Z,100.00
2023-04-09T20:55:44.624Z,100.00
2023-04-09T20:58:57.608Z,100.00
2023-04-09T21:02:09.869Z,100.00
2023-04-09T21:05:23.850Z,100.00
2023-04-09T21:08:36.914Z,100.00
2023-04-09T21:11:49.162Z,100.00
2023-04-09T21:15:01.701Z,100.00
2023-04-09T21:18:14.242Z,100.00
2023-04-09T21:21:27.642Z,100.00
2023-04-09T21:24:39.421Z,100.00
2023-04-09T21:27:51.887Z,100.00
2023-04-09T21:31:04.044Z,100.00
2023-04-09T21:34:16.224Z,100.00
2023-04-09T21:37:29.190Z,100.00
2023-04-09T21:40:41.310Z,100.00
2023-04-09T21:43:53.362Z,100.00
2023-04-09T21:47:07.796Z,100.00
2023-04-09T21:50:20.709Z,100.00
2023-04-09T21:53:34.659Z,100.00
2023-04-09T21:56:46.758Z,100.00
2023-04-09T21:59:58.815Z,100.00
2023-04-09T22:03:11.342Z,100.00
2023-04-09T22:06:24.094Z,100.00
2023-04-09T22:09:36.682Z,100.00
2023-04-09T22:12:48.713Z,100.00
2023-04-09T22:16:01.421Z,100.00
2023-04-09T22:19:14.452Z,100.00
2023-04-09T22:22:26.503Z,100.00
2023-04-09T22:25:39.072Z,100.00
2023-04-09T22:28:51.168Z,100.00
2023-04-09T22:32:04.017Z,100.00
2023-04-09T22:35:18.533Z,100.00
2023-04-09T22:38:30.680Z,100.00
2023-04-09T22:41:42.816Z,100.00
2023-04-09T22:44:54.798Z,100.00
2023-04-09T22:48:07.535Z,100.00
2023-04-09T22:51:20.464Z,100.00
2023-04-09T22:54:33.191Z,100.00
2023-04-09T22:57:45.268Z,100.00
2023-04-09T23:00:57.650Z,100.00
2023-04-09T23:04:10.023Z,100.00
2023-04-09T23:07:22.279Z,100.00
2023-04-09T23:10:34.232Z,100.00
2023-04-09T23:13:46.773Z,100.00
2023-04-09T23:16:58.749Z,100.00
2023-04-09T23:20:15.249Z,100.00
2023-04-09T23:23:27.389Z,100.00
2023-04-09T23:26:40.178Z,100.00
2023-04-09T23:29:52.306Z,100.00
2023-04-09T23:33:04.377Z,100.00
2023-04-09T23:36:17.198Z,100.00
2023-04-09T23:39:29.344Z,100.00
2023-04-09T23:42:41.472Z,100.00
2023-04-09T23:45:53.724Z,100.00
2023-04-09T23:49:05.785Z,100.00
2023-04-09T23:52:17.740Z,100.00
2023-04-09T23:55:30.053Z,100.00
2023-04-09T23:58:42.264Z,100.00
